Time;durP1;ratioP1;P1;durP2;ratioP2;P2;SDS_P1;SDS_P2;PMS_P1;PMS_P2;Temp;Humidity;BMP_temperature;BMP_pressure;BME280_temperature;BME280_humidity;BME280_pressure;Samples;Min_cycle;Max_cycle;Signal;HPM_P1;HPM_P2
2023/02/02 00:00:17;;;;;;;;;;;;;;;;;;5066193;28;19999;-76
2023/02/02 00:02:42;;;;;;;;;;;;;;;;;;5072939;28;19912;-76
2023/02/02 00:05:08;;;;;;;;;;;;;;;;;;5065255;28;20006;-77
2023/02/02 00:07:33;;;;;;;;;;;;;;;;;;5071262;28;19962;-77
2023/02/02 00:09:58;;;;;;;;;;;;;;;;;;5068379;28;20280;-77
2023/02/02 00:12:23;;;;;;;;;;;;;;;;;;5072857;28;19912;-78
2023/02/02 00:14:49;;;;;;;;;;;;;;;;;;5073099;28;19912;-78
2023/02/02 00:17:14;;;;;;;;;;;;;;;;;;5083089;28;20006;-78
2023/02/02 00:19:39;;;;;;;;;;;;;;;;;;5080935;28;20291;-76
2023/02/02 00:22:04;;;;;;;;;;;;;;;;;;5089849;28;20334;-76
2023/02/02 00:24:29;;;;;;;;;;;;;;;;;;5063699;28;19916;-75
2023/02/02 00:26:54;;;;;;;;;;;;;;;;;;5075667;28;19956;-77
2023/02/02 00:29:19;;;;;;;;;;;;;;;;;;5068346;28;19919;-77
2023/02/02 00:31:44;;;;;;;;;;;;;;;;;;5051363;28;19952;-77
2023/02/02 00:34:10;;;;;;;;;;;;;;;;;;5052333;28;19916;-77
2023/02/02 00:36:35;;;;;;;;;;;;;;;;;;5043673;28;19923;-77
2023/02/02 00:39:00;;;;;;;;;;;;;;;;;;5044187;28;19913;-77
2023/02/02 00:41:25;;;;;;;;;;;;;;;;;;5047817;28;19913;-78
2023/02/02 00:45:14;;;;;;;;;;;;;;;;;;5066163;28;20318;-76
2023/02/02 00:46:35;;;;;;;;;;;;;;;;;;5066911;28;19962;-77
2023/02/02 00:49:01;;;;;;;;;;;;;;;;;;5062517;28;20007;-78
2023/02/02 00:51:26;;;;;;;;;;;;;;;;;;5052694;28;19912;-78
2023/02/02 00:53:51;;;;;;;;;;;;;;;;;;5047904;28;19916;-77
2023/02/02 00:56:16;;;;;;;;;;;;;;;;;;5050377;28;20039;-78
2023/02/02 00:58:41;;;;;;;;;;;;;;;;;;5067183;28;20279;-78
2023/02/02 01:01:06;;;;;;;;;;;;;;;;;;5046256;28;20283;-76
2023/02/02 01:03:31;;;;;;;;;;;;;;;;;;5043997;28;20335;-77
2023/02/02 01:05:56;;;;;;;;;;;;;;;;;;5055819;28;20276;-77
2023/02/02 01:08:22;;;;;;;;;;;;;;;;;;5047157;28;20365;-77
2023/02/02 01:10:47;;;;;;;;;;;;;;;;;;5057031;28;19920;-77
2023/02/02 01:13:12;;;;;;;;;;;;;;;;;;5066734;28;19971;-76
2023/02/02 01:15:37;;;;;;;;;;;;;;;;;;5071077;28;19912;-77
2023/02/02 01:18:02;;;;;;;;;;;;;;;;;;5067710;28;19919;-76
2023/02/02 01:20:28;;;;;;;;;;;;;;;;;;5074727;28;19912;-78
2023/02/02 01:22:53;;;;;;;;;;;;;;;;;;5072204;28;19977;-77
2023/02/02 01:25:18;;;;;;;;;;;;;;;;;;5050579;28;19917;-77
2023/02/02 01:27:43;;;;;;;;;;;;;;;;;;5090686;28;19938;-76
2023/02/02 01:30:08;;;;;;;;;;;;;;;;;;5092826;28;19913;-76
2023/02/02 01:32:34;;;;;;;;;;;;;;;;;;5070056;28;19916;-76
2023/02/02 01:34:59;;;;;;;;;;;;;;;;;;5088950;28;19913;-77
2023/02/02 01:37:24;;;;;;;;;;;;;;;;;;5082279;28;19916;-76
2023/02/02 01:39:49;;;;;;;;;;;;;;;;;;5087085;28;19964;-77
2023/02/02 01:42:14;;;;;;;;;;;;;;;;;;5090516;28;19916;-77
2023/02/02 01:44:39;;;;;;;;;;;;;;;;;;5087875;28;19919;-77
2023/02/02 01:47:04;;;;;;;;;;;;;;;;;;5088237;28;19916;-77
2023/02/02 01:49:30;;;;;;;;;;;;;;;;;;5076299;28;19916;-76
2023/02/02 01:51:55;;;;;;;;;;;;;;;;;;5092410;28;19981;-77
2023/02/02 01:54:20;;;;;;;;;;;;;;;;;;5074309;28;20688;-77
2023/02/02 01:56:45;;;;;;;;;;;;;;;;;;5072519;28;20017;-77
2023/02/02 01:59:10;;;;;;;;;;;;;;;;;;5093401;28;20425;-77
2023/02/02 02:01:35;;;;;;;;;;;;;;;;;;5067515;28;19916;-76
2023/02/02 02:04:00;;;;;;;;;;;;;;;;;;5084047;28;19918;-77
2023/02/02 02:06:26;;;;;;;;;;;;;;;;;;5090840;28;20368;-77
2023/02/02 02:08:51;;;;;;;;;;;;;;;;;;5068611;28;19927;-76
2023/02/02 02:11:16;;;;;;;;;;;;;;;;;;5077835;28;19947;-76
2023/02/02 02:16:25;;;;;;;;;;;;;;;;;;5088148;28;20065;-77
2023/02/02 02:18:50;;;;;;;;;;;;;;;;;;5065430;28;19994;-77
2023/02/02 02:26:43;;;;;;;;;;;;;;;;;;5091827;28;19927;-76
2023/02/02 02:29:08;;;;;;;;;;;;;;;;;;5090122;28;20296;-77
2023/02/02 02:31:33;;;;;;;;;;;;;;;;;;5091873;28;20379;-76
2023/02/02 02:33:59;;;;;;;;;;;;;;;;;;5090911;28;19916;-76
2023/02/02 02:36:24;;;;;;;;;;;;;;;;;;5073715;28;19966;-76
2023/02/02 02:38:49;;;;;;;;;;;;;;;;;;5086407;28;20422;-77
2023/02/02 02:41:14;;;;;;;;;;;;;;;;;;5081439;28;20435;-76
2023/02/02 02:43:39;;;;;;;;;;;;;;;;;;5082867;28;20421;-77
2023/02/02 02:46:04;;;;;;;;;;;;;;;;;;5070505;28;20011;-75
2023/02/02 02:48:30;;;;;;;;;;;;;;;;;;5070703;28;19918;-76
2023/02/02 02:50:55;;;;;;;;;;;;;;;;;;5086623;28;20242;-77
2023/02/02 02:53:20;;;;;;;;;;;;;;;;;;5075134;28;20015;-77
2023/02/02 02:55:45;;;;;;;;;;;;;;;;;;5070953;28;20382;-77
2023/02/02 02:58:10;;;;;;;;;;;;;;;;;;5087812;28;19919;-77
2023/02/02 03:00:35;;;;;;;;;;;;;;;;;;5071534;28;19908;-77
2023/02/02 03:03:00;;;;;;;;;;;;;;;;;;5083091;28;20362;-77
2023/02/02 03:05:26;;;;;;;;;;;;;;;;;;5083203;28;20408;-77
2023/02/02 03:07:51;;;;;;;;;;;;;;;;;;5087137;28;19920;-77
2023/02/02 03:10:16;;;;;;;;;;;;;;;;;;5065348;28;19919;-77
2023/02/02 03:12:41;;;;;;;;;;;;;;;;;;5088631;28;20029;-77
2023/02/02 03:15:06;;;;;;;;;;;;;;;;;;5091627;28;20002;-77
2023/02/02 03:17:31;;;;;;;;;;;;;;;;;;5073403;28;20360;-76
2023/02/02 03:19:56;;;;;;;;;;;;;;;;;;5072112;28;20287;-76
2023/02/02 03:22:21;;;;;;;;;;;;;;;;;;5073279;28;19959;-76
2023/02/02 03:24:47;;;;;;;;;;;;;;;;;;5091666;28;19912;-75
2023/02/02 03:27:12;;;;;;;;;;;;;;;;;;5087871;28;20323;-77
2023/02/02 03:29:37;;;;;;;;;;;;;;;;;;5084506;28;19912;-76
2023/02/02 03:32:02;;;;;;;;;;;;;;;;;;5089180;28;19972;-76
2023/02/02 03:34:27;;;;;;;;;;;;;;;;;;5091693;28;19961;-76
2023/02/02 03:36:52;;;;;;;;;;;;;;;;;;5064982;28;19999;-76
2023/02/02 03:39:18;;;;;;;;;;;;;;;;;;5081027;28;19977;-76
2023/02/02 03:41:43;;;;;;;;;;;;;;;;;;5080800;28;19912;-77
2023/02/02 03:44:08;;;;;;;;;;;;;;;;;;5072530;28;19912;-77
2023/02/02 03:46:34;;;;;;;;;;;;;;;;;;5080324;28;19912;-77
2023/02/02 03:48:59;;;;;;;;;;;;;;;;;;5091391;28;19908;-75
2023/02/02 03:51:24;;;;;;;;;;;;;;;;;;5064604;28;20011;-77
2023/02/02 03:53:49;;;;;;;;;;;;;;;;;;5073939;28;19916;-77
2023/02/02 03:56:14;;;;;;;;;;;;;;;;;;5066160;28;19913;-77
2023/02/02 03:58:40;;;;;;;;;;;;;;;;;;5090261;28;19919;-77
2023/02/02 04:01:05;;;;;;;;;;;;;;;;;;5082114;28;19915;-77
2023/02/02 04:03:30;;;;;;;;;;;;;;;;;;5063860;28;19916;-76
2023/02/02 04:05:55;;;;;;;;;;;;;;;;;;5091252;28;19912;-77
2023/02/02 04:08:20;;;;;;;;;;;;;;;;;;5082623;28;19912;-76
2023/02/02 04:10:45;;;;;;;;;;;;;;;;;;5064525;28;19967;-76
2023/02/02 04:13:10;;;;;;;;;;;;;;;;;;5062275;28;19970;-76
2023/02/02 04:15:35;;;;;;;;;;;;;;;;;;5065938;28;20003;-77
2023/02/02 04:18:01;;;;;;;;;;;;;;;;;;5070154;28;19927;-78
2023/02/02 04:20:26;;;;;;;;;;;;;;;;;;5070148;28;19912;-76
2023/02/02 04:22:51;;;;;;;;;;;;;;;;;;5067928;28;19912;-76
2023/02/02 04:25:16;;;;;;;;;;;;;;;;;;5086861;28;19912;-77
2023/02/02 04:27:41;;;;;;;;;;;;;;;;;;5071467;28;19920;-77
2023/02/02 04:30:07;;;;;;;;;;;;;;;;;;5067692;28;20380;-77
2023/02/02 04:32:32;;;;;;;;;;;;;;;;;;5081256;28;19982;-77
2023/02/02 04:34:58;;;;;;;;;;;;;;;;;;5072329;28;19940;-77
2023/02/02 04:37:23;;;;;;;;;;;;;;;;;;5067280;28;19913;-75
2023/02/02 04:39:49;;;;;;;;;;;;;;;;;;5069988;28;19912;-76
2023/02/02 04:42:14;;;;;;;;;;;;;;;;;;5081825;28;19927;-77
2023/02/02 04:44:39;;;;;;;;;;;;;;;;;;5089918;28;19919;-76
2023/02/02 04:47:04;;;;;;;;;;;;;;;;;;5084207;28;20356;-76
2023/02/02 04:49:30;;;;;;;;;;;;;;;;;;5087935;28;19916;-76
2023/02/02 04:51:55;;;;;;;;;;;;;;;;;;5083740;28;20054;-76
2023/02/02 04:54:21;;;;;;;;;;;;;;;;;;5086374;28;19919;-76
2023/02/02 04:56:46;;;;;;;;;;;;;;;;;;5085138;28;19912;-76
2023/02/02 04:59:11;;;;;;;;;;;;;;;;;;5090866;28;19926;-76
2023/02/02 05:01:36;;;;;;;;;;;;;;;;;;5087116;28;20003;-77
2023/02/02 05:04:01;;;;;;;;;;;;;;;;;;5070739;28;20339;-77
2023/02/02 05:06:26;;;;;;;;;;;;;;;;;;5069192;28;19966;-77
2023/02/02 05:08:51;;;;;;;;;;;;;;;;;;5078924;28;19965;-77
2023/02/02 05:11:17;;;;;;;;;;;;;;;;;;5068160;28;19915;-76
2023/02/02 05:13:42;;;;;;;;;;;;;;;;;;5063460;28;19995;-76
2023/02/02 05:16:07;;;;;;;;;;;;;;;;;;5069490;28;20394;-77
2023/02/02 05:18:32;;;;;;;;;;;;;;;;;;5085666;28;19965;-77
2023/02/02 05:20:57;;;;;;;;;;;;;;;;;;5069897;28;19939;-77
2023/02/02 05:23:22;;;;;;;;;;;;;;;;;;5069337;28;19951;-76
2023/02/02 05:25:48;;;;;;;;;;;;;;;;;;5083106;28;19917;-76
2023/02/02 05:28:13;;;;;;;;;;;;;;;;;;5042547;28;20012;-76
2023/02/02 05:30:38;;;;;;;;;;;;;;;;;;5042621;28;19912;-77
2023/02/02 05:33:03;;;;;;;;;;;;;;;;;;5043571;28;19916;-76
2023/02/02 05:35:28;;;;;;;;;;;;;;;;;;5066956;28;19999;-75
2023/02/02 05:37:53;;;;;;;;;;;;;;;;;;5046499;28;19912;-75
2023/02/02 12:05:36;;;;;;;;;;;;;;;;;;5108980;27;19962;-78
2023/02/02 12:08:02;;;;;;;;;;;;;;;;;;5102749;28;19947;-79
2023/02/02 12:10:27;;;;;;;;;;;;;;;;;;5080972;28;19969;-81
2023/02/02 12:12:52;;;;;;;;;;;;;;;;;;5108421;28;19916;-78
2023/02/02 12:15:18;;;;;;;;;;;;;;;;;;5106651;28;19919;-78
2023/02/02 12:17:44;;;;;;;;;;;;;;;;;;5084433;28;19912;-78
2023/02/02 12:20:09;;;;;;;;;;;;;;;;;;5104041;28;19908;-77
2023/02/02 12:22:34;;;;;;;;;;;;;;;;;;5085879;28;19919;-79
2023/02/02 12:24:59;;;;;;;;;;;;;;;;;;5088786;28;20332;-79
2023/02/02 12:27:24;;;;;;;;;;;;;;;;;;5107222;28;20379;-78
2023/02/02 12:29:49;;;;;;;;;;;;;;;;;;5087168;28;19951;-78
2023/02/02 12:32:14;;;;;;;;;;;;;;;;;;5085293;28;20350;-78
2023/02/02 12:34:40;;;;;;;;;;;;;;;;;;5088308;28;19909;-79
2023/02/02 12:37:05;;;;;;;;;;;;;;;;;;5088276;28;19912;-79
2023/02/02 12:39:30;;;;;;;;;;;;;;;;;;5087899;28;19912;-78
2023/02/02 12:41:55;;;;;;;;;;;;;;;;;;5087502;28;19955;-78
2023/02/02 12:44:20;;;;;;;;;;;;;;;;;;5106194;28;19923;-76
2023/02/02 12:46:45;;;;;;;;;;;;;;;;;;5108311;28;19955;-76
2023/02/02 12:49:11;;;;;;;;;;;;;;;;;;5089152;28;20348;-79
2023/02/02 12:51:36;;;;;;;;;;;;;;;;;;5089934;28;20148;-77
2023/02/02 12:54:01;;;;;;;;;;;;;;;;;;5105261;28;19919;-77
2023/02/02 12:56:26;;;;;;;;;;;;;;;;;;5087617;28;19919;-77
2023/02/02 12:58:51;;;;;;;;;;;;;;;;;;5104983;28;19919;-79
2023/02/02 13:01:16;;;;;;;;;;;;;;;;;;5085496;28;20007;-81
2023/02/02 13:03:42;;;;;;;;;;;;;;;;;;5086803;28;19927;-80
2023/02/02 13:06:08;;;;;;;;;;;;;;;;;;5087105;28;19923;-85
2023/02/02 13:08:33;;;;;;;;;;;;;;;;;;5087210;28;19919;-81
2023/02/02 13:10:58;;;;;;;;;;;;;;;;;;5080747;28;19920;-84
2023/02/02 13:13:23;;;;;;;;;;;;;;;;;;5102212;28;20266;-83
2023/02/02 13:15:49;;;;;;;;;;;;;;;;;;5096434;28;20352;-84
2023/02/02 13:18:14;;;;;;;;;;;;;;;;;;5077152;28;20580;-83
2023/02/02 13:20:39;;;;;;;;;;;;;;;;;;5077255;28;20347;-83
2023/02/02 13:23:04;;;;;;;;;;;;;;;;;;5077578;28;19926;-83
2023/02/02 13:25:29;;;;;;;;;;;;;;;;;;5075686;28;19960;-82
2023/02/02 13:27:54;;;;;;;;;;;;;;;;;;5076489;28;19923;-83
2023/02/02 13:30:20;;;;;;;;;;;;;;;;;;5076539;28;19908;-82
2023/02/02 13:32:45;;;;;;;;;;;;;;;;;;5077036;28;20317;-82
2023/02/02 13:35:10;;;;;;;;;;;;;;;;;;5074837;28;20362;-84
2023/02/02 13:37:37;;;;;;;;;;;;;;;;;;5093158;28;19915;-86
2023/02/02 13:40:03;;;;;;;;;;;;;;;;;;5056862;28;20367;-89
2023/02/02 13:42:28;;;;;;;;;;;;;;;;;;5056631;28;19920;-83
2023/02/02 13:44:53;;;;;;;;;;;;;;;;;;5056737;28;19919;-84
2023/02/02 13:47:18;;;;;;;;;;;;;;;;;;5070798;28;19920;-86
2023/02/02 13:49:44;;;;;;;;;;;;;;;;;;5065079;28;19945;-91
2023/02/02 13:52:09;;;;;;;;;;;;;;;;;;5076689;28;19904;-81
2023/02/02 13:54:35;;;;;;;;;;;;;;;;;;5076290;28;19995;-82
2023/02/02 13:57:00;;;;;;;;;;;;;;;;;;5093123;28;20015;-83
2023/02/02 13:59:25;;;;;;;;;;;;;;;;;;5074646;28;20014;-82
2023/02/02 14:01:51;;;;;;;;;;;;;;;;;;5075886;28;19908;-84
2023/02/02 14:04:16;;;;;;;;;;;;;;;;;;5069172;28;19920;-85
2023/02/02 14:06:41;;;;;;;;;;;;;;;;;;5068687;28;19920;-85
2023/02/02 14:09:07;;;;;;;;;;;;;;;;;;5061097;28;19913;-83
2023/02/02 14:11:32;;;;;;;;;;;;;;;;;;5070133;28;19912;-82
2023/02/02 14:16:40;;;;;;;;;;;;;;;;;;5072734;28;19919;-84
2023/02/02 14:19:07;;;;;;;;;;;;;;;;;;5065591;28;19913;-82
2023/02/02 14:21:32;;;;;;;;;;;;;;;;;;5070391;28;20322;-81
2023/02/02 14:23:58;;;;;;;;;;;;;;;;;;5060402;28;19946;-81
2023/02/02 14:26:23;;;;;;;;;;;;;;;;;;5066938;28;19914;-81
2023/02/02 14:28:48;;;;;;;;;;;;;;;;;;5066770;28;19928;-81
2023/02/02 14:31:13;;;;;;;;;;;;;;;;;;5068969;28;19912;-81
2023/02/02 14:33:40;;;;;;;;;;;;;;;;;;5070600;28;19941;-81
2023/02/02 14:36:06;;;;;;;;;;;;;;;;;;5066631;28;20011;-81
2023/02/02 14:38:31;;;;;;;;;;;;;;;;;;5068517;28;20004;-80
2023/02/02 14:40:56;;;;;;;;;;;;;;;;;;5069624;28;19978;-80
2023/02/02 14:46:05;;;;;;;;;;;;;;;;;;5070011;28;19920;-81
2023/02/02 14:48:33;;;;;;;;;;;;;;;;;;5070755;28;19912;-81
2023/02/02 14:50:58;;;;;;;;;;;;;;;;;;5069706;28;19924;-80
2023/02/02 14:53:24;;;;;;;;;;;;;;;;;;5069332;28;19912;-80
2023/02/02 14:55:49;;;;;;;;;;;;;;;;;;5070348;28;19912;-80
2023/02/02 14:58:14;;;;;;;;;;;;;;;;;;5068331;28;19919;-81
2023/02/02 15:00:40;;;;;;;;;;;;;;;;;;5068339;28;19961;-79
2023/02/02 15:03:06;;;;;;;;;;;;;;;;;;5070392;28;19912;-79
2023/02/02 15:05:34;;;;;;;;;;;;;;;;;;5090823;28;20298;-79
2023/02/02 15:07:59;;;;;;;;;;;;;;;;;;5090002;28;20039;-79
2023/02/02 15:10:25;;;;;;;;;;;;;;;;;;5086007;28;19991;-79
2023/02/02 15:12:50;;;;;;;;;;;;;;;;;;5068073;28;19966;-80
2023/02/02 15:15:16;;;;;;;;;;;;;;;;;;5088485;28;20003;-80
2023/02/02 15:17:43;;;;;;;;;;;;;;;;;;5089833;28;19916;-80
2023/02/02 15:20:08;;;;;;;;;;;;;;;;;;5070666;28;19916;-80
2023/02/02 15:22:33;;;;;;;;;;;;;;;;;;5070436;28;20324;-80
2023/02/02 15:24:58;;;;;;;;;;;;;;;;;;5073656;28;19962;-80
2023/02/02 15:27:24;;;;;;;;;;;;;;;;;;5072563;28;19969;-80
2023/02/02 15:29:49;;;;;;;;;;;;;;;;;;5068438;28;19959;-80
2023/02/02 15:32:14;;;;;;;;;;;;;;;;;;5070370;28;19948;-79
2023/02/02 15:34:39;;;;;;;;;;;;;;;;;;5073402;28;19916;-80
2023/02/02 15:37:04;;;;;;;;;;;;;;;;;;5073271;28;19913;-80
2023/02/02 15:39:29;;;;;;;;;;;;;;;;;;5066731;28;19919;-80
2023/02/02 15:44:38;;;;;;;;;;;;;;;;;;5083995;28;20354;-79
2023/02/02 15:47:04;;;;;;;;;;;;;;;;;;5090810;28;19951;-80
2023/02/02 15:49:31;;;;;;;;;;;;;;;;;;5068573;28;19916;-79
